sensor_id;sensor_type;location;lat;lon;timestamp;temperature;humidity
22940;DHT22;11636;52.086;5.090;2022-11-15T00:00:27;7.10;99.90
22940;DHT22;11636;52.086;5.090;2022-11-15T00:03:01;7.00;99.90
22940;DHT22;11636;52.086;5.090;2022-11-15T00:05:35;7.10;99.90
22940;DHT22;11636;52.086;5.090;2022-11-15T00:08:09;7.10;99.90
22940;DHT22;11636;52.086;5.090;2022-11-15T00:10:37;7.00;99.90
22940;DHT22;11636;52.086;5.090;2022-11-15T00:13:13;7.10;99.90
22940;DHT22;11636;52.086;5.090;2022-11-15T00:15:46;7.10;99.90
22940;DHT22;11636;52.086;5.090;2022-11-15T00:18:14;7.10;99.90
22940;DHT22;11636;52.086;5.090;2022-11-15T00:20:47;7.10;99.90
22940;DHT22;11636;52.086;5.090;2022-11-15T00:23:14;7.10;99.90
22940;DHT22;11636;52.086;5.090;2022-11-15T00:25:41;7.10;99.90
22940;DHT22;11636;52.086;5.090;2022-11-15T00:28:14;7.10;99.90
22940;DHT22;11636;52.086;5.090;2022-11-15T00:30:41;7.10;99.90
22940;DHT22;11636;52.086;5.090;2022-11-15T00:33:14;7.10;99.90
22940;DHT22;11636;52.086;5.090;2022-11-15T00:35:47;7.10;99.90
22940;DHT22;11636;52.086;5.090;2022-11-15T00:38:14;7.10;99.90
22940;DHT22;11636;52.086;5.090;2022-11-15T00:40:47;7.10;99.90
22940;DHT22;11636;52.086;5.090;2022-11-15T00:43:16;7.10;99.90
22940;DHT22;11636;52.086;5.090;2022-11-15T00:45:49;7.20;99.90
22940;DHT22;11636;52.086;5.090;2022-11-15T00:48:23;7.20;99.90
22940;DHT22;11636;52.086;5.090;2022-11-15T00:50:50;7.20;99.90
22940;DHT22;11636;52.086;5.090;2022-11-15T00:53:24;7.20;99.90
22940;DHT22;11636;52.086;5.090;2022-11-15T00:55:50;7.20;99.90
22940;DHT22;11636;52.086;5.090;2022-11-15T00:58:24;7.20;99.90
22940;DHT22;11636;52.086;5.090;2022-11-15T01:00:51;7.20;99.90
22940;DHT22;11636;52.086;5.090;2022-11-15T01:03:25;7.20;99.90
22940;DHT22;11636;52.086;5.090;2022-11-15T01:06:00;7.20;99.90
22940;DHT22;11636;52.086;5.090;2022-11-15T01:08:26;7.20;99.90
22940;DHT22;11636;52.086;5.090;2022-11-15T01:11:05;7.20;99.90
22940;DHT22;11636;52.086;5.090;2022-11-15T01:13:33;7.20;99.90
22940;DHT22;11636;52.086;5.090;2022-11-15T01:16:14;7.30;99.90
22940;DHT22;11636;52.086;5.090;2022-11-15T01:18:50;7.30;99.90
22940;DHT22;11636;52.086;5.090;2022-11-15T01:21:19;7.30;99.90
22940;DHT22;11636;52.086;5.090;2022-11-15T01:23:45;7.30;99.90
22940;DHT22;11636;52.086;5.090;2022-11-15T01:26:19;7.30;99.90
22940;DHT22;11636;52.086;5.090;2022-11-15T01:28:52;7.40;99.90
22940;DHT22;11636;52.086;5.090;2022-11-15T01:31:20;7.40;99.90
22940;DHT22;11636;52.086;5.090;2022-11-15T01:33:53;7.40;99.90
22940;DHT22;11636;52.086;5.090;2022-11-15T01:36:21;7.40;99.90
22940;DHT22;11636;52.086;5.090;2022-11-15T01:38:56;7.40;99.90
22940;DHT22;11636;52.086;5.090;2022-11-15T01:41:31;7.50;99.90
22940;DHT22;11636;52.086;5.090;2022-11-15T01:47:36;7.50;99.90
22940;DHT22;11636;52.086;5.090;2022-11-15T01:50:08;7.50;99.90
22940;DHT22;11636;52.086;5.090;2022-11-15T01:52:43;7.60;99.90
22940;DHT22;11636;52.086;5.090;2022-11-15T01:55:18;7.60;99.90
22940;DHT22;11636;52.086;5.090;2022-11-15T01:57:59;7.60;99.90
22940;DHT22;11636;52.086;5.090;2022-11-15T02:00:29;7.60;99.90
22940;DHT22;11636;52.086;5.090;2022-11-15T02:03:03;7.60;99.90
22940;DHT22;11636;52.086;5.090;2022-11-15T02:05:30;7.70;99.90
22940;DHT22;11636;52.086;5.090;2022-11-15T02:07:59;7.70;99.90
22940;DHT22;11636;52.086;5.090;2022-11-15T02:10:33;7.70;99.90
22940;DHT22;11636;52.086;5.090;2022-11-15T02:13:02;7.70;99.90
22940;DHT22;11636;52.086;5.090;2022-11-15T02:15:42;7.70;99.90
22940;DHT22;11636;52.086;5.090;2022-11-15T02:18:15;7.80;99.90
22940;DHT22;11636;52.086;5.090;2022-11-15T02:21:06;7.80;99.90
22940;DHT22;11636;52.086;5.090;2022-11-15T02:23:48;7.80;99.90
22940;DHT22;11636;52.086;5.090;2022-11-15T02:33:05;7.90;99.90
22940;DHT22;11636;52.086;5.090;2022-11-15T02:38:55;8.00;99.90
22940;DHT22;11636;52.086;5.090;2022-11-15T02:41:36;8.10;99.90
22940;DHT22;11636;52.086;5.090;2022-11-15T02:44:26;8.20;99.90
22940;DHT22;11636;52.086;5.090;2022-11-15T02:47:07;8.20;99.90
22940;DHT22;11636;52.086;5.090;2022-11-15T02:49:50;8.20;99.90
22940;DHT22;11636;52.086;5.090;2022-11-15T02:52:24;8.30;99.90
22940;DHT22;11636;52.086;5.090;2022-11-15T02:55:00;8.30;99.90
22940;DHT22;11636;52.086;5.090;2022-11-15T02:57:48;8.30;99.90
22940;DHT22;11636;52.086;5.090;2022-11-15T03:00:24;8.40;99.90
22940;DHT22;11636;52.086;5.090;2022-11-15T03:03:30;8.40;99.90
22940;DHT22;11636;52.086;5.090;2022-11-15T03:11:22;8.60;99.90
22940;DHT22;11636;52.086;5.090;2022-11-15T03:14:00;8.60;99.90
22940;DHT22;11636;52.086;5.090;2022-11-15T03:16:50;8.60;99.90
22940;DHT22;11636;52.086;5.090;2022-11-15T03:19:30;8.60;99.90
22940;DHT22;11636;52.086;5.090;2022-11-15T03:22:10;8.70;99.90
22940;DHT22;11636;52.086;5.090;2022-11-15T03:24:47;8.70;99.90
22940;DHT22;11636;52.086;5.090;2022-11-15T03:27:28;8.70;99.90
22940;DHT22;11636;52.086;5.090;2022-11-15T03:30:06;8.70;99.90
22940;DHT22;11636;52.086;5.090;2022-11-15T03:32:40;8.80;99.90
22940;DHT22;11636;52.086;5.090;2022-11-15T03:35:19;8.80;99.90
22940;DHT22;11636;52.086;5.090;2022-11-15T03:40:45;8.80;99.90
22940;DHT22;11636;52.086;5.090;2022-11-15T03:43:39;8.80;99.90
22940;DHT22;11636;52.086;5.090;2022-11-15T03:46:13;8.90;99.90
22940;DHT22;11636;52.086;5.090;2022-11-15T03:48:51;8.90;99.90
22940;DHT22;11636;52.086;5.090;2022-11-15T03:51:26;8.90;99.90
22940;DHT22;11636;52.086;5.090;2022-11-15T03:53:52;8.90;99.90
22940;DHT22;11636;52.086;5.090;2022-11-15T03:56:26;9.00;99.90
22940;DHT22;11636;52.086;5.090;2022-11-15T03:58:53;9.10;99.90
22940;DHT22;11636;52.086;5.090;2022-11-15T04:01:20;9.10;99.90
22940;DHT22;11636;52.086;5.090;2022-11-15T04:03:54;9.10;99.90
22940;DHT22;11636;52.086;5.090;2022-11-15T04:06:20;9.00;99.90
22940;DHT22;11636;52.086;5.090;2022-11-15T04:08:47;9.00;99.90
22940;DHT22;11636;52.086;5.090;2022-11-15T04:11:21;9.00;99.90
22940;DHT22;11636;52.086;5.090;2022-11-15T04:13:47;9.00;99.90
22940;DHT22;11636;52.086;5.090;2022-11-15T04:16:14;9.00;99.90
22940;DHT22;11636;52.086;5.090;2022-11-15T04:18:48;9.00;99.90
22940;DHT22;11636;52.086;5.090;2022-11-15T04:21:40;8.90;99.90
22940;DHT22;11636;52.086;5.090;2022-11-15T04:24:33;8.90;99.90
22940;DHT22;11636;52.086;5.090;2022-11-15T04:27:06;8.90;99.90
22940;DHT22;11636;52.086;5.090;2022-11-15T04:29:46;9.00;99.90
22940;DHT22;11636;52.086;5.090;2022-11-15T04:32:13;9.00;99.90
22940;DHT22;11636;52.086;5.090;2022-11-15T04:34:46;9.00;99.90
22940;DHT22;11636;52.086;5.090;2022-11-15T04:37:13;9.00;99.90
22940;DHT22;11636;52.086;5.090;2022-11-15T04:39:47;9.00;99.90
22940;DHT22;11636;52.086;5.090;2022-11-15T04:42:14;9.10;99.90
22940;DHT22;11636;52.086;5.090;2022-11-15T04:44:47;9.10;99.90
22940;DHT22;11636;52.086;5.090;2022-11-15T04:47:20;9.10;99.90
22940;DHT22;11636;52.086;5.090;2022-11-15T04:49:54;9.10;99.90
22940;DHT22;11636;52.086;5.090;2022-11-15T04:52:21;9.10;99.90
22940;DHT22;11636;52.086;5.090;2022-11-15T04:54:47;9.10;99.90
22940;DHT22;11636;52.086;5.090;2022-11-15T04:57:21;9.00;99.90
22940;DHT22;11636;52.086;5.090;2022-11-15T04:59:48;9.10;99.90
22940;DHT22;11636;52.086;5.090;2022-11-15T05:02:21;9.10;99.90
22940;DHT22;11636;52.086;5.090;2022-11-15T05:04:47;9.20;99.90
22940;DHT22;11636;52.086;5.090;2022-11-15T05:07:21;9.20;99.90
22940;DHT22;11636;52.086;5.090;2022-11-15T05:09:55;9.20;99.90
22940;DHT22;11636;52.086;5.090;2022-11-15T05:12:22;9.30;99.90
22940;DHT22;11636;52.086;5.090;2022-11-15T05:14:49;9.30;99.90
22940;DHT22;11636;52.086;5.090;2022-11-15T05:17:24;9.40;99.90
22940;DHT22;11636;52.086;5.090;2022-11-15T05:19:58;9.40;99.90
22940;DHT22;11636;52.086;5.090;2022-11-15T05:22:25;9.50;99.90
22940;DHT22;11636;52.086;5.090;2022-11-15T05:24:52;9.50;99.90
22940;DHT22;11636;52.086;5.090;2022-11-15T05:27:26;9.50;99.90
22940;DHT22;11636;52.086;5.090;2022-11-15T05:29:53;9.50;99.90
22940;DHT22;11636;52.086;5.090;2022-11-15T05:32:26;9.50;99.90
22940;DHT22;11636;52.086;5.090;2022-11-15T05:35:00;9.60;99.90
22940;DHT22;11636;52.086;5.090;2022-11-15T05:37:28;9.60;99.90
22940;DHT22;11636;52.086;5.090;2022-11-15T05:39:55;9.60;99.90
22940;DHT22;11636;52.086;5.090;2022-11-15T05:42:29;9.60;99.90
22940;DHT22;11636;52.086;5.090;2022-11-15T05:45:07;9.70;99.90
22940;DHT22;11636;52.086;5.090;2022-11-15T05:47:41;9.60;99.90
22940;DHT22;11636;52.086;5.090;2022-11-15T05:50:16;9.70;99.90
22940;DHT22;11636;52.086;5.090;2022-11-15T05:52:54;9.70;99.90
22940;DHT22;11636;52.086;5.090;2022-11-15T05:55:31;9.80;99.90
22940;DHT22;11636;52.086;5.090;2022-11-15T05:57:59;9.80;99.90
22940;DHT22;11636;52.086;5.090;2022-11-15T06:00:33;9.80;99.90
22940;DHT22;11636;52.086;5.090;2022-11-15T06:03:00;9.90;99.90
22940;DHT22;11636;52.086;5.090;2022-11-15T06:05:33;9.90;99.90
22940;DHT22;11636;52.086;5.090;2022-11-15T06:08:06;9.90;99.90
22940;DHT22;11636;52.086;5.090;2022-11-15T06:10:39;9.90;99.90
22940;DHT22;11636;52.086;5.090;2022-11-15T06:13:12;9.90;99.90
22940;DHT22;11636;52.086;5.090;2022-11-15T06:15:39;9.90;99.90
22940;DHT22;11636;52.086;5.090;2022-11-15T06:18:12;9.90;99.90
22940;DHT22;11636;52.086;5.090;2022-11-15T06:20:39;9.90;99.90
22940;DHT22;11636;52.086;5.090;2022-11-15T06:23:06;9.90;99.90
22940;DHT22;11636;52.086;5.090;2022-11-15T06:25:39;9.80;99.90
22940;DHT22;11636;52.086;5.090;2022-11-15T06:28:12;9.90;99.90
22940;DHT22;11636;52.086;5.090;2022-11-15T06:30:45;9.80;99.90
22940;DHT22;11636;52.086;5.090;2022-11-15T06:33:18;9.90;99.90
22940;DHT22;11636;52.086;5.090;2022-11-15T06:35:52;9.90;99.90
22940;DHT22;11636;52.086;5.090;2022-11-15T06:38:26;9.90;99.90
22940;DHT22;11636;52.086;5.090;2022-11-15T06:40:53;9.90;99.90
22940;DHT22;11636;52.086;5.090;2022-11-15T06:43:28;9.90;99.90
22940;DHT22;11636;52.086;5.090;2022-11-15T06:46:02;9.90;99.90
22940;DHT22;11636;52.086;5.090;2022-11-15T06:48:36;9.90;99.90
22940;DHT22;11636;52.086;5.090;2022-11-15T06:51:04;9.90;99.90
22940;DHT22;11636;52.086;5.090;2022-11-15T06:53:38;9.90;99.90
22940;DHT22;11636;52.086;5.090;2022-11-15T06:56:06;9.90;99.90
22940;DHT22;11636;52.086;5.090;2022-11-15T06:58:33;9.90;99.90
22940;DHT22;11636;52.086;5.090;2022-11-15T07:01:10;9.90;99.90
22940;DHT22;11636;52.086;5.090;2022-11-15T07:03:39;9.90;99.90
22940;DHT22;11636;52.086;5.090;2022-11-15T07:06:08;9.90;99.90
22940;DHT22;11636;52.086;5.090;2022-11-15T07:08:43;9.80;99.90
22940;DHT22;11636;52.086;5.090;2022-11-15T07:11:16;9.70;99.90
22940;DHT22;11636;52.086;5.090;2022-11-15T07:13:49;9.60;99.90
22940;DHT22;11636;52.086;5.090;2022-11-15T07:16:16;9.50;99.90
22940;DHT22;11636;52.086;5.090;2022-11-15T07:18:43;9.50;99.90
22940;DHT22;11636;52.086;5.090;2022-11-15T07:21:16;9.50;99.90
22940;DHT22;11636;52.086;5.090;2022-11-15T07:23:43;9.50;99.90
22940;DHT22;11636;52.086;5.090;2022-11-15T07:26:17;9.50;99.90
22940;DHT22;11636;52.086;5.090;2022-11-15T07:28:50;9.50;99.90
22940;DHT22;11636;52.086;5.090;2022-11-15T07:31:17;9.60;99.90
22940;DHT22;11636;52.086;5.090;2022-11-15T07:33:44;9.50;99.90
22940;DHT22;11636;52.086;5.090;2022-11-15T07:36:17;9.50;99.90
22940;DHT22;11636;52.086;5.090;2022-11-15T07:38:44;9.60;99.90
22940;DHT22;11636;52.086;5.090;2022-11-15T07:41:17;9.60;99.90
22940;DHT22;11636;52.086;5.090;2022-11-15T07:43:44;9.60;99.90
22940;DHT22;11636;52.086;5.090;2022-11-15T07:46:17;9.50;99.90
22940;DHT22;11636;52.086;5.090;2022-11-15T07:48:44;9.50;99.90
22940;DHT22;11636;52.086;5.090;2022-11-15T07:51:17;9.50;99.90
22940;DHT22;11636;52.086;5.090;2022-11-15T07:53:44;9.60;99.90
22940;DHT22;11636;52.086;5.090;2022-11-15T07:56:17;9.70;99.90
22940;DHT22;11636;52.086;5.090;2022-11-15T07:58:45;9.70;99.90
22940;DHT22;11636;52.086;5.090;2022-11-15T08:01:12;9.80;99.90
22940;DHT22;11636;52.086;5.090;2022-11-15T08:03:46;9.80;99.90
22940;DHT22;11636;52.086;5.090;2022-11-15T08:06:13;9.80;99.90
22940;DHT22;11636;52.086;5.090;2022-11-15T08:08:40;9.90;99.90
22940;DHT22;11636;52.086;5.090;2022-11-15T08:11:13;9.90;99.90
22940;DHT22;11636;52.086;5.090;2022-11-15T08:13:40;9.90;99.90
22940;DHT22;11636;52.086;5.090;2022-11-15T08:16:08;10.00;99.90
22940;DHT22;11636;52.086;5.090;2022-11-15T08:18:41;10.00;99.90
22940;DHT22;11636;52.086;5.090;2022-11-15T08:21:18;10.00;99.90
22940;DHT22;11636;52.086;5.090;2022-11-15T08:23:52;10.10;99.90
22940;DHT22;11636;52.086;5.090;2022-11-15T08:26:19;10.10;99.90
22940;DHT22;11636;52.086;5.090;2022-11-15T08:28:52;10.10;99.90
22940;DHT22;11636;52.086;5.090;2022-11-15T08:31:25;10.20;99.90
22940;DHT22;11636;52.086;5.090;2022-11-15T08:33:52;10.20;99.90
22940;DHT22;11636;52.086;5.090;2022-11-15T08:36:25;10.20;99.90
22940;DHT22;11636;52.086;5.090;2022-11-15T08:39:11;10.30;99.90
22940;DHT22;11636;52.086;5.090;2022-11-15T08:41:41;10.30;99.90
22940;DHT22;11636;52.086;5.090;2022-11-15T08:44:14;10.40;99.90
22940;DHT22;11636;52.086;5.090;2022-11-15T08:46:41;10.40;99.90
22940;DHT22;11636;52.086;5.090;2022-11-15T08:49:14;10.40;99.90
22940;DHT22;11636;52.086;5.090;2022-11-15T08:51:41;10.50;99.90
22940;DHT22;11636;52.086;5.090;2022-11-15T08:54:14;10.60;99.90
22940;DHT22;11636;52.086;5.090;2022-11-15T08:56:47;10.60;99.90
22940;DHT22;11636;52.086;5.090;2022-11-15T08:59:15;10.70;99.90
22940;DHT22;11636;52.086;5.090;2022-11-15T09:01:41;10.70;99.90
22940;DHT22;11636;52.086;5.090;2022-11-15T09:04:15;10.70;99.90
22940;DHT22;11636;52.086;5.090;2022-11-15T09:06:42;10.80;99.90
22940;DHT22;11636;52.086;5.090;2022-11-15T09:09:09;10.80;99.90
22940;DHT22;11636;52.086;5.090;2022-11-15T09:11:42;10.80;99.90
22940;DHT22;11636;52.086;5.090;2022-11-15T09:14:13;10.80;99.90
22940;DHT22;11636;52.086;5.090;2022-11-15T09:16:46;10.80;99.90
22940;DHT22;11636;52.086;5.090;2022-11-15T09:19:13;10.90;99.90
22940;DHT22;11636;52.086;5.090;2022-11-15T09:21:41;11.00;99.90
22940;DHT22;11636;52.086;5.090;2022-11-15T09:24:14;11.00;99.90
22940;DHT22;11636;52.086;5.090;2022-11-15T09:26:41;11.00;99.90
22940;DHT22;11636;52.086;5.090;2022-11-15T09:29:14;11.00;99.90
22940;DHT22;11636;52.086;5.090;2022-11-15T09:31:47;11.00;99.90
22940;DHT22;11636;52.086;5.090;2022-11-15T09:34:20;10.90;99.90
22940;DHT22;11636;52.086;5.090;2022-11-15T09:36:47;10.90;99.90
22940;DHT22;11636;52.086;5.090;2022-11-15T09:39:20;11.00;99.90
22940;DHT22;11636;52.086;5.090;2022-11-15T09:44:44;11.20;99.90
22940;DHT22;11636;52.086;5.090;2022-11-15T09:50:10;11.20;99.90
22940;DHT22;11636;52.086;5.090;2022-11-15T09:52:45;11.20;99.90
22940;DHT22;11636;52.086;5.090;2022-11-15T09:55:14;11.20;99.90
22940;DHT22;11636;52.086;5.090;2022-11-15T09:58:03;11.30;99.90
22940;DHT22;11636;52.086;5.090;2022-11-15T10:00:41;11.30;99.90
22940;DHT22;11636;52.086;5.090;2022-11-15T10:03:29;11.40;99.90
22940;DHT22;11636;52.086;5.090;2022-11-15T10:06:05;11.40;99.90
22940;DHT22;11636;52.086;5.090;2022-11-15T10:09:04;11.40;99.90
22940;DHT22;11636;52.086;5.090;2022-11-15T10:11:40;11.50;99.90
22940;DHT22;11636;52.086;5.090;2022-11-15T10:14:26;11.40;99.90
22940;DHT22;11636;52.086;5.090;2022-11-15T10:20:26;11.40;99.90
22940;DHT22;11636;52.086;5.090;2022-11-15T10:23:01;11.50;99.90
22940;DHT22;11636;52.086;5.090;2022-11-15T10:25:35;11.50;99.90
22940;DHT22;11636;52.086;5.090;2022-11-15T10:28:17;11.50;99.90
22940;DHT22;11636;52.086;5.090;2022-11-15T10:31:00;11.60;99.90
22940;DHT22;11636;52.086;5.090;2022-11-15T10:33:39;11.70;99.90
22940;DHT22;11636;52.086;5.090;2022-11-15T10:41:27;11.70;99.90
22940;DHT22;11636;52.086;5.090;2022-11-15T10:54:52;12.00;99.90
22940;DHT22;11636;52.086;5.090;2022-11-15T10:57:29;12.10;99.90
22940;DHT22;11636;52.086;5.090;2022-11-15T10:59:58;12.10;99.90
22940;DHT22;11636;52.086;5.090;2022-11-15T11:05:37;12.30;99.90
22940;DHT22;11636;52.086;5.090;2022-11-15T11:10:57;12.50;99.90
22940;DHT22;11636;52.086;5.090;2022-11-15T11:13:33;12.50;99.90
22940;DHT22;11636;52.086;5.090;2022-11-15T11:30:34;12.20;99.90
22940;DHT22;11636;52.086;5.090;2022-11-15T11:33:17;12.20;99.90
22940;DHT22;11636;52.086;5.090;2022-11-15T11:44:30;12.20;99.90
22940;DHT22;11636;52.086;5.090;2022-11-15T11:47:10;12.30;99.90
22940;DHT22;11636;52.086;5.090;2022-11-15T11:49:53;12.30;99.90
22940;DHT22;11636;52.086;5.090;2022-11-15T11:52:57;12.40;99.90
22940;DHT22;11636;52.086;5.090;2022-11-15T11:55:41;12.40;99.90
22940;DHT22;11636;52.086;5.090;2022-11-15T12:00:56;12.40;99.90
22940;DHT22;11636;52.086;5.090;2022-11-15T12:03:44;12.40;99.90
22940;DHT22;11636;52.086;5.090;2022-11-15T12:15:09;12.50;99.90
22940;DHT22;11636;52.086;5.090;2022-11-15T12:17:44;12.40;99.90
22940;DHT22;11636;52.086;5.090;2022-11-15T12:20:33;12.40;99.90
22940;DHT22;11636;52.086;5.090;2022-11-15T12:23:04;12.50;99.90
22940;DHT22;11636;52.086;5.090;2022-11-15T12:28:53;12.50;99.90
22940;DHT22;11636;52.086;5.090;2022-11-15T12:34:29;12.50;99.90
22940;DHT22;11636;52.086;5.090;2022-11-15T12:36:56;12.60;99.90
22940;DHT22;11636;52.086;5.090;2022-11-15T12:45:37;12.70;99.90
22940;DHT22;11636;52.086;5.090;2022-11-15T13:07:05;12.60;99.90
22940;DHT22;11636;52.086;5.090;2022-11-15T13:09:50;12.60;99.90
22940;DHT22;11636;52.086;5.090;2022-11-15T13:15:07;12.50;99.90
22940;DHT22;11636;52.086;5.090;2022-11-15T13:17:55;12.40;99.90
22940;DHT22;11636;52.086;5.090;2022-11-15T13:20:30;12.40;99.90
22940;DHT22;11636;52.086;5.090;2022-11-15T13:23:09;12.30;99.90
22940;DHT22;11636;52.086;5.090;2022-11-15T13:28:42;12.20;99.90
22940;DHT22;11636;52.086;5.090;2022-11-15T13:31:36;12.20;99.90
22940;DHT22;11636;52.086;5.090;2022-11-15T13:34:44;12.10;99.90
22940;DHT22;11636;52.086;5.090;2022-11-15T13:39:53;12.10;99.90
22940;DHT22;11636;52.086;5.090;2022-11-15T13:42:28;12.00;99.90
22940;DHT22;11636;52.086;5.090;2022-11-15T13:44:58;12.00;99.90
22940;DHT22;11636;52.086;5.090;2022-11-15T13:47:27;12.00;99.90
22940;DHT22;11636;52.086;5.090;2022-11-15T13:50:01;11.90;99.90
22940;DHT22;11636;52.086;5.090;2022-11-15T13:52:40;12.00;99.90
22940;DHT22;11636;52.086;5.090;2022-11-15T13:55:31;12.00;99.90
22940;DHT22;11636;52.086;5.090;2022-11-15T13:58:12;12.00;99.90
22940;DHT22;11636;52.086;5.090;2022-11-15T14:00:59;12.10;99.90
22940;DHT22;11636;52.086;5.090;2022-11-15T14:03:42;12.10;99.90
22940;DHT22;11636;52.086;5.090;2022-11-15T14:06:16;12.10;99.90
22940;DHT22;11636;52.086;5.090;2022-11-15T14:11:53;12.10;99.90
22940;DHT22;11636;52.086;5.090;2022-11-15T14:14:28;12.10;99.90
22940;DHT22;11636;52.086;5.090;2022-11-15T14:16:58;12.10;99.90
22940;DHT22;11636;52.086;5.090;2022-11-15T14:22:28;12.10;99.90
22940;DHT22;11636;52.086;5.090;2022-11-15T14:25:16;12.10;99.90
22940;DHT22;11636;52.086;5.090;2022-11-15T14:28:11;12.10;99.90
22940;DHT22;11636;52.086;5.090;2022-11-15T14:30:45;12.00;99.90
22940;DHT22;11636;52.086;5.090;2022-11-15T14:33:34;12.00;99.90
22940;DHT22;11636;52.086;5.090;2022-11-15T14:36:16;12.00;99.90
22940;DHT22;11636;52.086;5.090;2022-11-15T14:38:50;11.90;99.90
22940;DHT22;11636;52.086;5.090;2022-11-15T14:41:24;11.90;99.90
22940;DHT22;11636;52.086;5.090;2022-11-15T14:43:59;11.90;99.90
22940;DHT22;11636;52.086;5.090;2022-11-15T14:46:26;11.80;99.90
22940;DHT22;11636;52.086;5.090;2022-11-15T14:48:59;11.80;99.90
22940;DHT22;11636;52.086;5.090;2022-11-15T14:51:26;11.80;99.90
22940;DHT22;11636;52.086;5.090;2022-11-15T14:53:59;11.70;99.90
22940;DHT22;11636;52.086;5.090;2022-11-15T14:56:26;11.70;99.90
22940;DHT22;11636;52.086;5.090;2022-11-15T14:58:52;11.70;99.90
22940;DHT22;11636;52.086;5.090;2022-11-15T15:01:28;11.70;99.90
22940;DHT22;11636;52.086;5.090;2022-11-15T15:03:55;11.60;99.90
22940;DHT22;11636;52.086;5.090;2022-11-15T15:06:32;11.60;99.90
22940;DHT22;11636;52.086;5.090;2022-11-15T15:09:05;11.60;99.90
22940;DHT22;11636;52.086;5.090;2022-11-15T15:11:32;11.60;99.90
22940;DHT22;11636;52.086;5.090;2022-11-15T15:14:05;11.60;99.90
22940;DHT22;11636;52.086;5.090;2022-11-15T15:16:31;11.50;99.90
22940;DHT22;11636;52.086;5.090;2022-11-15T15:19:05;11.50;99.90
22940;DHT22;11636;52.086;5.090;2022-11-15T15:21:31;11.50;99.90
22940;DHT22;11636;52.086;5.090;2022-11-15T15:24:05;11.50;99.90
22940;DHT22;11636;52.086;5.090;2022-11-15T15:26:38;11.50;99.90
22940;DHT22;11636;52.086;5.090;2022-11-15T15:29:05;11.50;99.90
22940;DHT22;11636;52.086;5.090;2022-11-15T15:31:32;11.40;99.90
22940;DHT22;11636;52.086;5.090;2022-11-15T15:34:06;11.50;99.90
22940;DHT22;11636;52.086;5.090;2022-11-15T15:36:39;11.40;99.90
22940;DHT22;11636;52.086;5.090;2022-11-15T15:39:13;11.40;99.90
22940;DHT22;11636;52.086;5.090;2022-11-15T15:41:47;11.40;99.90
22940;DHT22;11636;52.086;5.090;2022-11-15T15:44:19;11.40;99.90
22940;DHT22;11636;52.086;5.090;2022-11-15T15:46:52;11.40;99.90
22940;DHT22;11636;52.086;5.090;2022-11-15T15:49:25;11.40;99.90
22940;DHT22;11636;52.086;5.090;2022-11-15T15:51:52;11.40;99.90
22940;DHT22;11636;52.086;5.090;2022-11-15T15:54:19;11.40;99.90
22940;DHT22;11636;52.086;5.090;2022-11-15T15:56:52;11.40;99.90
22940;DHT22;11636;52.086;5.090;2022-11-15T15:59:21;11.30;99.90
22940;DHT22;11636;52.086;5.090;2022-11-15T16:01:57;11.40;99.90
22940;DHT22;11636;52.086;5.090;2022-11-15T16:04:24;11.40;99.90
22940;DHT22;11636;52.086;5.090;2022-11-15T16:07:12;11.40;99.90
22940;DHT22;11636;52.086;5.090;2022-11-15T16:09:49;11.50;99.90
22940;DHT22;11636;52.086;5.090;2022-11-15T16:12:35;11.40;99.90
22940;DHT22;11636;52.086;5.090;2022-11-15T16:15:08;11.50;99.90
22940;DHT22;11636;52.086;5.090;2022-11-15T16:17:52;11.50;99.90
22940;DHT22;11636;52.086;5.090;2022-11-15T16:23:15;11.50;99.90
22940;DHT22;11636;52.086;5.090;2022-11-15T16:25:51;11.40;99.90
22940;DHT22;11636;52.086;5.090;2022-11-15T16:28:28;11.40;99.90
22940;DHT22;11636;52.086;5.090;2022-11-15T16:31:09;11.40;99.90
22940;DHT22;11636;52.086;5.090;2022-11-15T16:33:37;11.40;99.90
22940;DHT22;11636;52.086;5.090;2022-11-15T16:36:22;11.40;99.90
22940;DHT22;11636;52.086;5.090;2022-11-15T16:38:55;11.30;99.90
22940;DHT22;11636;52.086;5.090;2022-11-15T16:41:29;11.20;99.90
22940;DHT22;11636;52.086;5.090;2022-11-15T16:43:56;11.20;99.90
22940;DHT22;11636;52.086;5.090;2022-11-15T16:46:25;11.10;99.90
22940;DHT22;11636;52.086;5.090;2022-11-15T16:48:59;11.10;99.90
22940;DHT22;11636;52.086;5.090;2022-11-15T16:51:26;11.00;99.90
22940;DHT22;11636;52.086;5.090;2022-11-15T16:53:53;10.90;99.90
22940;DHT22;11636;52.086;5.090;2022-11-15T16:56:27;10.90;99.90
22940;DHT22;11636;52.086;5.090;2022-11-15T16:58:56;10.90;99.90
22940;DHT22;11636;52.086;5.090;2022-11-15T17:01:37;10.80;99.90
22940;DHT22;11636;52.086;5.090;2022-11-15T17:04:12;10.80;99.90
22940;DHT22;11636;52.086;5.090;2022-11-15T17:06:47;10.70;99.90
22940;DHT22;11636;52.086;5.090;2022-11-15T17:09:19;10.70;99.90
22940;DHT22;11636;52.086;5.090;2022-11-15T17:11:53;10.60;99.90
22940;DHT22;11636;52.086;5.090;2022-11-15T17:14:20;10.50;99.90
22940;DHT22;11636;52.086;5.090;2022-11-15T17:16:53;10.50;99.90
22940;DHT22;11636;52.086;5.090;2022-11-15T17:19:23;10.40;99.90
22940;DHT22;11636;52.086;5.090;2022-11-15T17:21:50;10.40;99.90
22940;DHT22;11636;52.086;5.090;2022-11-15T17:24:23;10.40;99.90
22940;DHT22;11636;52.086;5.090;2022-11-15T17:26:59;10.40;99.90
22940;DHT22;11636;52.086;5.090;2022-11-15T17:29:25;10.30;99.90
22940;DHT22;11636;52.086;5.090;2022-11-15T17:31:52;10.30;99.90
22940;DHT22;11636;52.086;5.090;2022-11-15T17:34:26;10.30;99.90
22940;DHT22;11636;52.086;5.090;2022-11-15T17:36:53;10.30;99.90
22940;DHT22;11636;52.086;5.090;2022-11-15T17:39:26;10.30;99.90
22940;DHT22;11636;52.086;5.090;2022-11-15T17:41:53;10.20;99.90
22940;DHT22;11636;52.086;5.090;2022-11-15T17:44:20;10.30;99.90
22940;DHT22;11636;52.086;5.090;2022-11-15T17:46:53;10.20;99.90
22940;DHT22;11636;52.086;5.090;2022-11-15T17:49:20;10.20;99.90
22940;DHT22;11636;52.086;5.090;2022-11-15T17:51:47;10.20;99.90
22940;DHT22;11636;52.086;5.090;2022-11-15T17:54:20;10.20;99.90
22940;DHT22;11636;52.086;5.090;2022-11-15T17:56:47;10.20;99.90
22940;DHT22;11636;52.086;5.090;2022-11-15T17:59:14;10.20;99.90
22940;DHT22;11636;52.086;5.090;2022-11-15T18:01:47;10.20;99.90
22940;DHT22;11636;52.086;5.090;2022-11-15T18:04:14;10.20;99.90
22940;DHT22;11636;52.086;5.090;2022-11-15T18:06:41;10.20;99.90
22940;DHT22;11636;52.086;5.090;2022-11-15T18:09:15;10.20;99.90
22940;DHT22;11636;52.086;5.090;2022-11-15T18:11:42;10.20;99.90
22940;DHT22;11636;52.086;5.090;2022-11-15T18:14:13;10.20;99.90
22940;DHT22;11636;52.086;5.090;2022-11-15T18:16:47;10.20;99.90
22940;DHT22;11636;52.086;5.090;2022-11-15T18:19:14;10.20;99.90
22940;DHT22;11636;52.086;5.090;2022-11-15T18:21:43;10.20;99.90
22940;DHT22;11636;52.086;5.090;2022-11-15T18:24:31;10.20;99.90
22940;DHT22;11636;52.086;5.090;2022-11-15T18:27:00;10.20;99.90
22940;DHT22;11636;52.086;5.090;2022-11-15T18:29:34;10.20;99.90
22940;DHT22;11636;52.086;5.090;2022-11-15T18:32:04;10.30;99.90